Time;durP1;ratioP1;P1;durP2;ratioP2;P2;SDS_P1;SDS_P2;PMS_P1;PMS_P2;Temp;Humidity;BMP_temperature;BMP_pressure;BME280_temperature;BME280_humidity;BME280_pressure;Samples;Min_cycle;Max_cycle;Signal;HPM_P1;HPM_P2
2023/04/16 00:00:25;;;;;;;2.13;1.93;;;;;;;;;;5063488;28;20207;-57
2023/04/16 00:02:52;;;;;;;3.47;1.70;;;;;;;;;;5071584;28;20233;-57
2023/04/16 00:05:19;;;;;;;2.57;1.60;;;;;;;;;;5064843;28;20211;-57
2023/04/16 00:07:46;;;;;;;3.07;2.30;;;;;;;;;;5073509;28;20213;-57
2023/04/16 00:10:14;;;;;;;2.53;1.77;;;;;;;;;;5072275;28;20210;-56
2023/04/16 00:12:42;;;;;;;2.40;2.13;;;;;;;;;;5074940;28;20206;-58
2023/04/16 00:15:09;;;;;;;2.10;2.00;;;;;;;;;;5065811;28;20258;-57
2023/04/16 00:17:37;;;;;;;3.80;2.33;;;;;;;;;;5054957;28;20678;-57
2023/04/16 00:20:05;;;;;;;2.10;1.70;;;;;;;;;;5069070;28;20203;-57
2023/04/16 00:22:32;;;;;;;2.23;2.13;;;;;;;;;;5054511;28;20238;-57
2023/04/16 00:24:59;;;;;;;2.00;1.90;;;;;;;;;;5058282;28;20226;-57
2023/04/16 00:27:26;;;;;;;2.80;2.20;;;;;;;;;;5073809;28;20219;-57
2023/04/16 00:29:53;;;;;;;2.47;2.27;;;;;;;;;;5071445;28;20207;-57
2023/04/16 00:32:20;;;;;;;2.00;1.90;;;;;;;;;;5071989;28;20207;-57
2023/04/16 00:34:48;;;;;;;2.17;1.83;;;;;;;;;;5073241;28;20892;-58
2023/04/16 00:37:15;;;;;;;1.90;1.73;;;;;;;;;;5055397;28;20216;-57
2023/04/16 00:39:43;;;;;;;2.33;2.13;;;;;;;;;;5053695;28;20250;-57
2023/04/16 00:42:10;;;;;;;4.47;2.40;;;;;;;;;;5054292;28;20633;-57
2023/04/16 00:44:37;;;;;;;2.43;2.13;;;;;;;;;;5054232;28;20203;-57
2023/04/16 00:47:06;;;;;;;1.90;1.80;;;;;;;;;;5053635;28;20591;-57
2023/04/16 00:49:33;;;;;;;1.80;1.70;;;;;;;;;;5068856;28;20619;-57
2023/04/16 00:52:02;;;;;;;3.63;1.70;;;;;;;;;;5055057;28;20218;-56
2023/04/16 00:54:29;;;;;;;2.23;1.93;;;;;;;;;;5060646;28;20243;-57
2023/04/16 00:56:57;;;;;;;1.90;1.77;;;;;;;;;;5055241;28;20670;-58
2023/04/16 00:59:24;;;;;;;2.97;1.70;;;;;;;;;;5058076;28;20211;-57
2023/04/16 01:01:51;;;;;;;1.87;1.73;;;;;;;;;;5071341;28;20215;-57
2023/04/16 01:04:18;;;;;;;2.97;1.97;;;;;;;;;;5067106;28;20204;-57
2023/04/16 01:06:45;;;;;;;2.23;1.80;;;;;;;;;;5050731;28;20203;-57
2023/04/16 01:09:13;;;;;;;1.93;1.83;;;;;;;;;;5054171;28;20203;-57
2023/04/16 01:11:40;;;;;;;1.80;1.70;;;;;;;;;;5054041;28;20823;-57
2023/04/16 01:14:07;;;;;;;1.77;1.67;;;;;;;;;;5052846;28;20254;-57
2023/04/16 01:16:34;;;;;;;2.20;2.03;;;;;;;;;;5054712;28;20208;-57
2023/04/16 01:19:01;;;;;;;2.40;2.20;;;;;;;;;;5059485;28;20309;-57
2023/04/16 01:21:30;;;;;;;2.37;2.13;;;;;;;;;;5070402;28;20199;-57
2023/04/16 01:23:57;;;;;;;2.30;2.20;;;;;;;;;;5069861;28;20321;-57
2023/04/16 01:26:24;;;;;;;2.30;2.20;;;;;;;;;;5053070;28;20208;-57
2023/04/16 01:28:51;;;;;;;2.20;2.00;;;;;;;;;;5050610;28;20725;-57
2023/04/16 01:31:18;;;;;;;4.00;1.90;;;;;;;;;;5068869;28;20230;-57
2023/04/16 01:33:45;;;;;;;3.17;2.43;;;;;;;;;;5070398;28;20545;-57
2023/04/16 01:36:12;;;;;;;2.40;1.90;;;;;;;;;;5060749;28;20294;-57
2023/04/16 01:38:40;;;;;;;2.23;1.80;;;;;;;;;;5066223;28;20222;-57
2023/04/16 01:41:07;;;;;;;3.20;2.20;;;;;;;;;;5057023;28;20238;-57
2023/04/16 01:43:34;;;;;;;3.10;2.40;;;;;;;;;;5058229;28;20200;-58
2023/04/16 01:46:11;;;;;;;3.60;2.13;;;;;;;;;;5060719;28;20212;-58
2023/04/16 01:48:38;;;;;;;2.43;2.07;;;;;;;;;;5054262;28;20305;-57
2023/04/16 01:51:06;;;;;;;2.83;2.40;;;;;;;;;;5053678;28;20211;-57
2023/04/16 01:53:33;;;;;;;2.10;1.90;;;;;;;;;;5063958;28;20211;-57
2023/04/16 01:56:01;;;;;;;2.80;2.43;;;;;;;;;;5068960;28;20230;-57
2023/04/16 01:58:29;;;;;;;2.50;2.30;;;;;;;;;;5057019;28;20207;-57
2023/04/16 02:00:56;;;;;;;2.33;2.07;;;;;;;;;;5059326;28;20211;-57
2023/04/16 02:03:24;;;;;;;2.10;1.90;;;;;;;;;;5057219;28;20311;-57
2023/04/16 02:05:51;;;;;;;3.43;2.07;;;;;;;;;;5049664;28;20262;-58
2023/04/16 02:08:18;;;;;;;3.13;2.90;;;;;;;;;;5059927;28;20697;-56
2023/04/16 02:10:46;;;;;;;3.53;2.50;;;;;;;;;;5060663;28;20210;-57
2023/04/16 02:13:15;;;;;;;2.50;2.03;;;;;;;;;;5050632;28;20303;-58
2023/04/16 02:15:46;;;;;;;3.47;2.33;;;;;;;;;;5049903;28;20346;-58
2023/04/16 02:18:13;;;;;;;2.93;2.27;;;;;;;;;;5057744;28;20297;-57
2023/04/16 02:20:41;;;;;;;2.73;2.53;;;;;;;;;;5061290;28;20203;-58
2023/04/16 02:23:08;;;;;;;3.00;2.70;;;;;;;;;;5056599;28;20250;-57
2023/04/16 02:25:39;;;;;;;4.00;2.40;;;;;;;;;;5069051;28;20213;-57
2023/04/16 02:28:06;;;;;;;3.77;2.67;;;;;;;;;;5062332;28;20215;-57
2023/04/16 02:30:35;;;;;;;3.20;2.57;;;;;;;;;;5055544;28;20211;-57
2023/04/16 02:33:04;;;;;;;4.47;2.50;;;;;;;;;;5063674;28;20204;-58
2023/04/16 02:35:31;;;;;;;2.37;2.23;;;;;;;;;;5055894;28;20341;-58
2023/04/16 02:37:58;;;;;;;2.73;2.53;;;;;;;;;;5064157;28;20203;-57
2023/04/16 02:40:25;;;;;;;3.97;2.70;;;;;;;;;;5056873;28;20262;-57
2023/04/16 02:42:52;;;;;;;3.17;2.87;;;;;;;;;;5048927;28;20207;-58
2023/04/16 02:45:19;;;;;;;2.50;2.30;;;;;;;;;;5049086;28;20690;-58
2023/04/16 02:47:48;;;;;;;2.90;2.70;;;;;;;;;;5069076;28;20211;-57
2023/04/16 02:50:15;;;;;;;3.10;2.77;;;;;;;;;;5056424;28;20261;-57
2023/04/16 02:52:42;;;;;;;3.20;2.63;;;;;;;;;;5048823;28;20215;-57
2023/04/16 02:55:10;;;;;;;5.50;2.90;;;;;;;;;;5049167;28;20235;-58
2023/04/16 02:57:37;;;;;;;4.63;2.77;;;;;;;;;;5068017;28;20218;-58
2023/04/16 03:00:04;;;;;;;2.67;2.50;;;;;;;;;;5056590;28;20208;-58
2023/04/16 03:02:31;;;;;;;2.73;2.53;;;;;;;;;;5049245;28;20207;-57
2023/04/16 03:05:00;;;;;;;4.13;3.27;;;;;;;;;;5048593;28;20211;-58
2023/04/16 03:07:27;;;;;;;2.63;2.43;;;;;;;;;;5066586;28;20200;-58
2023/04/16 03:09:54;;;;;;;3.40;2.83;;;;;;;;;;5062968;28;20215;-58
2023/04/16 03:12:21;;;;;;;4.47;2.90;;;;;;;;;;5068437;28;20211;-57
2023/04/16 03:14:48;;;;;;;3.30;3.00;;;;;;;;;;5055097;28;20227;-57
2023/04/16 03:17:15;;;;;;;4.33;2.73;;;;;;;;;;5048652;28;20729;-58
2023/04/16 03:19:42;;;;;;;3.43;3.07;;;;;;;;;;5051672;28;20211;-57
2023/04/16 03:22:10;;;;;;;6.87;2.90;;;;;;;;;;5048718;28;20231;-57
2023/04/16 03:24:37;;;;;;;4.93;3.20;;;;;;;;;;5049345;28;20245;-57
2023/04/16 03:27:04;;;;;;;2.60;2.27;;;;;;;;;;5050455;28;20776;-57
2023/04/16 03:29:31;;;;;;;3.20;2.90;;;;;;;;;;5059114;28;20218;-58
2023/04/16 03:31:58;;;;;;;2.77;2.57;;;;;;;;;;5065241;28;20295;-58
2023/04/16 03:34:25;;;;;;;3.23;3.00;;;;;;;;;;5063997;28;20214;-58
2023/04/16 03:36:52;;;;;;;2.70;2.50;;;;;;;;;;5059446;28;20203;-58
2023/04/16 03:39:21;;;;;;;2.87;2.63;;;;;;;;;;5048108;28;20239;-57
2023/04/16 03:41:48;;;;;;;4.47;2.93;;;;;;;;;;5052242;28;20619;-58
2023/04/16 03:44:15;;;;;;;3.07;2.70;;;;;;;;;;5048114;28;20207;-57
2023/04/16 03:46:42;;;;;;;3.10;2.73;;;;;;;;;;5053382;28;20360;-58
2023/04/16 03:49:09;;;;;;;3.73;2.67;;;;;;;;;;5067990;28;20203;-57
2023/04/16 03:51:36;;;;;;;4.23;2.50;;;;;;;;;;5063425;28;20203;-57
2023/04/16 03:54:03;;;;;;;3.60;3.07;;;;;;;;;;5048156;28;20207;-57
2023/04/16 03:56:31;;;;;;;3.70;2.93;;;;;;;;;;5047252;28;20230;-57
2023/04/16 03:58:58;;;;;;;3.37;2.77;;;;;;;;;;5047728;28;20675;-57
2023/04/16 04:01:25;;;;;;;5.00;2.70;;;;;;;;;;5047834;28;20203;-57
2023/04/16 04:03:52;;;;;;;3.73;2.80;;;;;;;;;;5047367;28;20226;-57
2023/04/16 04:06:19;;;;;;;3.03;2.77;;;;;;;;;;5047324;28;20669;-57
2023/04/16 04:08:46;;;;;;;4.03;2.40;;;;;;;;;;5048025;28;20262;-57
2023/04/16 04:11:13;;;;;;;4.13;2.97;;;;;;;;;;5048404;28;20211;-58
2023/04/16 04:13:41;;;;;;;4.73;2.80;;;;;;;;;;5060305;28;20206;-58
2023/04/16 04:16:08;;;;;;;3.60;3.07;;;;;;;;;;5067385;28;20223;-58
2023/04/16 04:18:35;;;;;;;4.63;3.07;;;;;;;;;;5049440;28;20289;-57
2023/04/16 04:21:05;;;;;;;3.83;2.80;;;;;;;;;;5055930;28;20215;-58
2023/04/16 04:23:32;;;;;;;2.50;2.30;;;;;;;;;;5060206;28;20219;-58
2023/04/16 04:26:02;;;;;;;2.87;2.47;;;;;;;;;;5067969;28;20203;-58
2023/04/16 04:28:29;;;;;;;3.30;2.90;;;;;;;;;;5061498;28;20376;-57
2023/04/16 04:30:58;;;;;;;2.90;2.67;;;;;;;;;;5068054;28;20217;-57
2023/04/16 04:33:25;;;;;;;3.47;3.07;;;;;;;;;;5053588;28;20200;-57
2023/04/16 04:35:52;;;;;;;4.03;2.80;;;;;;;;;;5047598;28;20230;-57
2023/04/16 04:38:21;;;;;;;5.37;3.37;;;;;;;;;;5051762;28;20231;-58
2023/04/16 04:40:48;;;;;;;5.40;3.10;;;;;;;;;;5047780;28;20204;-58
2023/04/16 04:43:15;;;;;;;3.70;2.73;;;;;;;;;;5052043;28;20776;-57
2023/04/16 04:45:42;;;;;;;4.57;3.10;;;;;;;;;;5060862;28;20200;-57
2023/04/16 04:48:10;;;;;;;3.83;3.30;;;;;;;;;;5071118;28;20199;-57
2023/04/16 04:50:41;;;;;;;2.93;2.73;;;;;;;;;;5068189;28;20210;-58
2023/04/16 04:53:10;;;;;;;3.20;2.90;;;;;;;;;;5049485;28;20204;-57
2023/04/16 04:55:37;;;;;;;3.70;2.67;;;;;;;;;;5062772;28;20265;-57
2023/04/16 04:58:04;;;;;;;3.50;2.50;;;;;;;;;;5059954;28;20207;-57
2023/04/16 05:00:31;;;;;;;3.07;2.57;;;;;;;;;;5069768;28;20211;-57
2023/04/16 05:02:58;;;;;;;3.53;2.77;;;;;;;;;;5051000;28;20207;-57
2023/04/16 05:05:27;;;;;;;3.30;2.60;;;;;;;;;;5062707;28;20653;-57
2023/04/16 05:07:54;;;;;;;3.60;3.17;;;;;;;;;;5050856;28;20208;-57
2023/04/16 05:10:21;;;;;;;2.90;2.70;;;;;;;;;;5050954;28;20215;-57
2023/04/16 05:12:48;;;;;;;3.37;2.90;;;;;;;;;;5051490;28;20204;-57
2023/04/16 05:15:15;;;;;;;3.10;2.70;;;;;;;;;;5054418;28;20258;-57
2023/04/16 05:17:43;;;;;;;3.10;2.80;;;;;;;;;;5066898;28;20222;-57
2023/04/16 05:20:10;;;;;;;3.57;2.87;;;;;;;;;;5070463;28;20207;-57
2023/04/16 05:22:38;;;;;;;3.07;2.70;;;;;;;;;;5067772;28;20314;-57
2023/04/16 05:25:06;;;;;;;4.73;2.77;;;;;;;;;;5063837;28;20686;-57
2023/04/16 05:27:33;;;;;;;3.73;2.87;;;;;;;;;;5064978;28;20203;-57
2023/04/16 05:30:00;;;;;;;3.57;3.27;;;;;;;;;;5069706;28;20217;-57
2023/04/16 05:32:27;;;;;;;2.80;2.53;;;;;;;;;;5056916;28;20584;-57
2023/04/16 05:34:54;;;;;;;4.20;2.80;;;;;;;;;;5055525;28;20212;-57
2023/04/16 05:37:21;;;;;;;3.17;2.70;;;;;;;;;;5051184;28;20208;-57
2023/04/16 05:39:50;;;;;;;2.77;2.50;;;;;;;;;;5050733;28;20242;-59
2023/04/16 05:42:18;;;;;;;3.93;2.97;;;;;;;;;;5061826;28;20214;-57
2023/04/16 05:44:45;;;;;;;2.67;2.47;;;;;;;;;;5064538;28;20734;-59
2023/04/16 05:47:12;;;;;;;3.73;3.00;;;;;;;;;;5069762;28;20214;-57
2023/04/16 05:49:39;;;;;;;4.70;2.50;;;;;;;;;;5061167;28;20200;-57
2023/04/16 05:52:07;;;;;;;4.00;2.47;;;;;;;;;;5050264;28;20239;-56
2023/04/16 05:54:34;;;;;;;4.03;3.30;;;;;;;;;;5057383;28;20244;-57
2023/04/16 05:57:02;;;;;;;5.33;3.03;;;;;;;;;;5068909;28;20227;-57
2023/04/16 05:59:30;;;;;;;2.93;2.73;;;;;;;;;;5063586;28;20611;-57
2023/04/16 06:01:57;;;;;;;3.57;2.90;;;;;;;;;;5068689;28;20242;-57
2023/04/16 06:04:24;;;;;;;4.20;2.90;;;;;;;;;;5064192;28;20199;-57
2023/04/16 06:06:51;;;;;;;4.77;3.00;;;;;;;;;;5065115;28;20211;-57
2023/04/16 06:09:18;;;;;;;3.13;2.87;;;;;;;;;;5065551;28;20210;-57
2023/04/16 06:11:45;;;;;;;5.33;3.50;;;;;;;;;;5066633;28;20221;-57
2023/04/16 06:14:14;;;;;;;4.53;3.47;;;;;;;;;;5049456;28;20207;-57
2023/04/16 06:16:41;;;;;;;5.17;3.47;;;;;;;;;;5050510;28;20471;-57
2023/04/16 06:19:08;;;;;;;3.67;3.20;;;;;;;;;;5069009;28;20199;-58
2023/04/16 06:21:36;;;;;;;6.13;3.93;;;;;;;;;;5068634;28;20203;-58
2023/04/16 06:24:03;;;;;;;5.13;3.50;;;;;;;;;;5068512;28;20292;-58
2023/04/16 06:26:30;;;;;;;10.33;3.20;;;;;;;;;;5069278;28;20206;-57
2023/04/16 06:28:57;;;;;;;5.97;3.07;;;;;;;;;;5063571;28;20285;-57
2023/04/16 06:31:26;;;;;;;5.00;3.80;;;;;;;;;;5068970;28;20214;-57
2023/04/16 06:33:53;;;;;;;3.53;3.03;;;;;;;;;;5067842;28;20199;-58
2023/04/16 06:36:20;;;;;;;3.37;3.07;;;;;;;;;;5067315;28;20230;-57
2023/04/16 06:38:47;;;;;;;5.00;3.43;;;;;;;;;;5067182;28;20242;-58
2023/04/16 06:41:14;;;;;;;3.93;3.47;;;;;;;;;;5068701;28;20199;-57
2023/04/16 06:43:42;;;;;;;4.10;3.17;;;;;;;;;;5052903;28;20204;-56
2023/04/16 06:46:09;;;;;;;4.23;3.40;;;;;;;;;;5048825;28;20199;-56
2023/04/16 06:48:37;;;;;;;6.20;3.83;;;;;;;;;;5062678;28;20294;-56
2023/04/16 06:51:04;;;;;;;4.90;3.60;;;;;;;;;;5068220;28;20696;-56
2023/04/16 06:53:32;;;;;;;3.30;3.00;;;;;;;;;;5055147;28;20215;-56
2023/04/16 06:55:59;;;;;;;4.97;3.43;;;;;;;;;;5056293;28;20225;-57
2023/04/16 06:58:26;;;;;;;5.83;3.83;;;;;;;;;;5052374;28;20310;-57
2023/04/16 07:00:53;;;;;;;3.33;2.90;;;;;;;;;;5067092;28;20203;-57
2023/04/16 07:03:20;;;;;;;5.40;3.90;;;;;;;;;;5068055;28;20215;-57
2023/04/16 07:05:48;;;;;;;4.77;3.73;;;;;;;;;;5061612;28;20210;-56
2023/04/16 07:08:15;;;;;;;11.23;4.67;;;;;;;;;;5066508;28;20211;-56
2023/04/16 07:10:42;;;;;;;6.57;3.77;;;;;;;;;;5065703;28;20533;-57
2023/04/16 07:13:09;;;;;;;4.97;3.70;;;;;;;;;;5055256;28;20199;-57
2023/04/16 07:15:37;;;;;;;4.90;3.80;;;;;;;;;;5066905;28;20215;-56
2023/04/16 07:18:04;;;;;;;5.93;3.80;;;;;;;;;;5068554;28;20632;-56
2023/04/16 07:20:31;;;;;;;4.03;3.40;;;;;;;;;;5067680;28;20203;-56
2023/04/16 07:22:59;;;;;;;4.33;3.93;;;;;;;;;;5067695;28;20514;-57
2023/04/16 07:25:26;;;;;;;5.87;3.60;;;;;;;;;;5067315;28;20202;-57
2023/04/16 07:27:53;;;;;;;6.17;3.10;;;;;;;;;;5049060;28;20227;-56
2023/04/16 07:30:20;;;;;;;5.70;3.07;;;;;;;;;;5047705;28;20670;-56
2023/04/16 07:32:47;;;;;;;3.60;3.13;;;;;;;;;;5048056;28;20212;-56
2023/04/16 07:35:14;;;;;;;4.00;2.70;;;;;;;;;;5051997;28;20207;-56
2023/04/16 07:37:41;;;;;;;4.23;3.17;;;;;;;;;;5047407;28;20243;-57
2023/04/16 07:40:10;;;;;;;2.90;2.37;;;;;;;;;;5048203;28;20653;-57
2023/04/16 07:42:37;;;;;;;2.47;2.33;;;;;;;;;;5060950;28;20207;-58
2023/04/16 07:45:05;;;;;;;3.70;2.70;;;;;;;;;;5060846;28;20330;-57
2023/04/16 07:47:32;;;;;;;2.97;2.60;;;;;;;;;;5047754;28;20215;-58
2023/04/16 07:49:59;;;;;;;3.97;2.33;;;;;;;;;;5051208;28;20203;-58
2023/04/16 07:52:26;;;;;;;2.73;2.10;;;;;;;;;;5067452;28;20210;-57
2023/04/16 07:54:53;;;;;;;3.53;2.37;;;;;;;;;;5062214;28;20230;-60
2023/04/16 07:57:21;;;;;;;2.93;2.27;;;;;;;;;;5062172;28;20630;-60
2023/04/16 07:59:48;;;;;;;2.67;2.10;;;;;;;;;;5049675;28;20222;-58
2023/04/16 08:02:16;;;;;;;2.30;2.07;;;;;;;;;;5061738;28;20720;-58
2023/04/16 08:04:44;;;;;;;3.13;2.33;;;;;;;;;;5061135;28;20301;-58
2023/04/16 08:07:11;;;;;;;3.97;2.30;;;;;;;;;;5047343;28;20746;-58
2023/04/16 08:09:47;;;;;;;4.30;2.80;;;;;;;;;;5061290;28;20211;-60
2023/04/16 08:12:15;;;;;;;2.50;2.30;;;;;;;;;;5060114;28;20210;-58
2023/04/16 08:14:43;;;;;;;3.67;2.63;;;;;;;;;;5047370;28;20207;-58
2023/04/16 08:17:10;;;;;;;1.80;1.70;;;;;;;;;;5065325;28;20233;-58
2023/04/16 08:19:37;;;;;;;2.27;2.10;;;;;;;;;;5065705;28;20206;-62
2023/04/16 08:22:05;;;;;;;2.47;2.27;;;;;;;;;;5051497;28;20232;-58
2023/04/16 08:24:32;;;;;;;2.60;2.40;;;;;;;;;;5066869;28;20218;-57
2023/04/16 08:26:59;;;;;;;2.53;2.33;;;;;;;;;;5058670;28;20203;-58
2023/04/16 08:29:26;;;;;;;3.20;2.30;;;;;;;;;;5051272;28;20207;-57
2023/04/16 08:31:55;;;;;;;2.57;2.37;;;;;;;;;;5051365;28;20208;-58
2023/04/16 08:34:22;;;;;;;3.00;2.70;;;;;;;;;;5058534;28;20211;-58
2023/04/16 08:36:49;;;;;;;2.97;2.47;;;;;;;;;;5070351;28;20219;-58
2023/04/16 08:39:16;;;;;;;3.13;2.50;;;;;;;;;;5068539;28;20231;-58
2023/04/16 08:41:44;;;;;;;4.87;2.60;;;;;;;;;;5061515;28;20261;-57
2023/04/16 08:44:14;;;;;;;4.10;2.50;;;;;;;;;;5054641;28;20195;-58
2023/04/16 08:46:42;;;;;;;3.97;2.47;;;;;;;;;;5051811;28;20203;-58
2023/04/16 08:49:16;;;;;;;3.13;2.77;;;;;;;;;;5057465;28;20210;-58
2023/04/16 08:51:45;;;;;;;3.47;3.17;;;;;;;;;;5051661;28;20207;-57
2023/04/16 08:54:15;;;;;;;3.00;2.70;;;;;;;;;;5054012;28;20212;-57
2023/04/16 08:56:42;;;;;;;4.20;3.27;;;;;;;;;;5052148;28;20224;-55
2023/04/16 08:59:10;;;;;;;3.37;3.00;;;;;;;;;;5067833;28;20575;-56
2023/04/16 09:01:38;;;;;;;4.83;2.90;;;;;;;;;;5056437;28;20212;-56
2023/04/16 09:04:07;;;;;;;5.43;3.60;;;;;;;;;;5064976;28;20311;-56
2023/04/16 09:06:37;;;;;;;4.63;3.43;;;;;;;;;;5067345;28;20681;-57
2023/04/16 09:09:05;;;;;;;6.57;3.50;;;;;;;;;;5052159;28;20265;-57
2023/04/16 09:11:32;;;;;;;4.67;3.20;;;;;;;;;;5058708;28;20234;-58
2023/04/16 09:14:00;;;;;;;6.57;3.53;;;;;;;;;;5068906;28;20211;-57
2023/04/16 09:16:30;;;;;;;5.30;3.60;;;;;;;;;;5057997;28;20258;-56
2023/04/16 09:18:57;;;;;;;4.37;3.30;;;;;;;;;;5063770;28;20225;-57
2023/04/16 09:21:24;;;;;;;9.20;4.80;;;;;;;;;;5057797;28;20618;-57
2023/04/16 09:23:53;;;;;;;4.80;3.23;;;;;;;;;;5069434;28;20318;-57
2023/04/16 09:26:20;;;;;;;6.10;3.80;;;;;;;;;;5056086;28;20211;-57
2023/04/16 09:28:49;;;;;;;4.67;3.07;;;;;;;;;;5049479;28;20211;-58
2023/04/16 09:31:17;;;;;;;3.40;3.10;;;;;;;;;;5049396;28;20200;-58
2023/04/16 09:33:45;;;;;;;3.27;2.97;;;;;;;;;;5049630;28;20203;-57
2023/04/16 09:36:12;;;;;;;4.50;3.33;;;;;;;;;;5049979;28;20318;-57
2023/04/16 09:38:49;;;;;;;6.63;3.93;;;;;;;;;;5055368;28;20199;-58
2023/04/16 09:41:17;;;;;;;5.47;3.77;;;;;;;;;;5069517;28;20305;-58
2023/04/16 09:43:50;;;;;;;5.00;3.87;;;;;;;;;;5070162;28;20219;-58
2023/04/16 09:46:17;;;;;;;3.37;2.97;;;;;;;;;;5067680;28;20208;-58
2023/04/16 09:48:46;;;;;;;6.17;4.20;;;;;;;;;;5052320;28;20428;-57
2023/04/16 09:51:13;;;;;;;6.90;4.03;;;;;;;;;;5050146;28;20292;-59
2023/04/16 09:53:40;;;;;;;3.73;3.20;;;;;;;;;;5049395;28;20222;-58
2023/04/16 09:56:08;;;;;;;5.60;4.07;;;;;;;;;;5049747;28;20674;-58
2023/04/16 09:58:37;;;;;;;6.70;3.47;;;;;;;;;;5049616;28;20235;-58
2023/04/16 10:01:07;;;;;;;6.27;3.53;;;;;;;;;;5049786;28;20239;-57
2023/04/16 10:03:34;;;;;;;5.63;3.93;;;;;;;;;;5056615;28;20263;-57
2023/04/16 10:06:02;;;;;;;5.70;3.70;;;;;;;;;;5049630;28;20691;-58
2023/04/16 10:08:29;;;;;;;5.87;4.10;;;;;;;;;;5066797;28;20669;-58
2023/04/16 10:10:56;;;;;;;4.47;3.40;;;;;;;;;;5069363;28;20207;-58
2023/04/16 10:13:26;;;;;;;4.00;3.50;;;;;;;;;;5052880;28;20258;-58
2023/04/16 10:15:56;;;;;;;4.70;3.90;;;;;;;;;;5049780;28;20212;-58
2023/04/16 10:18:23;;;;;;;6.10;3.33;;;;;;;;;;5051752;28;20318;-59
2023/04/16 10:20:50;;;;;;;4.60;3.60;;;;;;;;;;5054418;28;20215;-58
2023/04/16 10:23:18;;;;;;;5.57;3.97;;;;;;;;;;5050377;28;20361;-58
2023/04/16 10:25:45;;;;;;;5.53;3.70;;;;;;;;;;5062203;28;20593;-58
2023/04/16 10:28:13;;;;;;;3.37;2.60;;;;;;;;;;5068854;28;20388;-58
2023/04/16 10:30:41;;;;;;;5.07;3.60;;;;;;;;;;5055434;28;20695;-58
2023/04/16 10:33:10;;;;;;;7.60;4.20;;;;;;;;;;5050074;28;20295;-58
2023/04/16 10:35:40;;;;;;;5.97;3.63;;;;;;;;;;5059421;28;20258;-58
2023/04/16 10:38:22;;;;;;;7.33;4.00;;;;;;;;;;5070302;28;20743;-58
2023/04/16 10:40:49;;;;;;;4.53;4.00;;;;;;;;;;5055092;28;20294;-57
2023/04/16 10:43:18;;;;;;;8.40;3.83;;;;;;;;;;5049961;28;20195;-58
2023/04/16 10:45:45;;;;;;;4.50;4.03;;;;;;;;;;5060725;28;20207;-63
2023/04/16 10:48:15;;;;;;;4.73;3.40;;;;;;;;;;5064835;28;20290;-63
2023/04/16 10:50:43;;;;;;;6.43;3.67;;;;;;;;;;5057332;28;20206;-57
2023/04/16 10:53:20;;;;;;;5.37;3.67;;;;;;;;;;5049752;28;20607;-57
2023/04/16 10:56:11;;;;;;;4.53;4.10;;;;;;;;;;5048250;28;20264;-57
2023/04/16 10:58:38;;;;;;;6.40;4.20;;;;;;;;;;5045756;28;20262;-57
2023/04/16 11:01:07;;;;;;;7.07;3.93;;;;;;;;;;5061451;28;20218;-61
2023/04/16 11:03:36;;;;;;;6.07;3.93;;;;;;;;;;5065756;28;20613;-58
2023/04/16 11:06:13;;;;;;;11.97;3.77;;;;;;;;;;5064031;28;20211;-59
2023/04/16 11:08:42;;;;;;;8.60;5.68;;;;;;;;;;5066052;28;20442;-58
2023/04/16 11:11:09;;;;;;;7.03;4.87;;;;;;;;;;5064186;28;20221;-58
2023/04/16 11:13:37;;;;;;;7.87;4.10;;;;;;;;;;5058223;28;20211;-57
2023/04/16 11:16:04;;;;;;;4.27;3.87;;;;;;;;;;5065818;28;20215;-57
2023/04/16 11:18:31;;;;;;;5.50;4.43;;;;;;;;;;5066369;28;20223;-58
2023/04/16 11:21:00;;;;;;;7.33;4.33;;;;;;;;;;5055503;28;20200;-58
2023/04/16 11:23:27;;;;;;;5.13;4.27;;;;;;;;;;5054459;28;20297;-59
2023/04/16 11:25:56;;;;;;;6.63;4.63;;;;;;;;;;5057072;28;20207;-58
2023/04/16 11:28:32;;;;;;;8.30;4.33;;;;;;;;;;5066872;28;20653;-58
2023/04/16 11:31:00;;;;;;;5.03;4.60;;;;;;;;;;5066230;28;20203;-58
2023/04/16 11:33:27;;;;;;;5.73;4.33;;;;;;;;;;5054092;28;20290;-58
2023/04/16 11:35:57;;;;;;;7.57;4.80;;;;;;;;;;5065487;28;20218;-58
2023/04/16 11:38:34;;;;;;;6.27;4.27;;;;;;;;;;5067370;28;20239;-58
2023/04/16 11:41:02;;;;;;;5.80;4.23;;;;;;;;;;5049812;28;20293;-58
2023/04/16 11:43:29;;;;;;;7.57;4.40;;;;;;;;;;5053049;28;20669;-58
2023/04/16 11:45:59;;;;;;;6.37;4.60;;;;;;;;;;5050341;28;20721;-58
2023/04/16 11:48:26;;;;;;;7.70;4.60;;;;;;;;;;5066447;28;20209;-58
2023/04/16 11:50:56;;;;;;;8.70;5.30;;;;;;;;;;5065950;28;20203;-58
2023/04/16 11:53:24;;;;;;;10.70;7.23;;;;;;;;;;5065980;28;20276;-58
2023/04/16 11:55:52;;;;;;;6.53;4.70;;;;;;;;;;5064332;28;20214;-57
2023/04/16 11:58:21;;;;;;;6.63;4.90;;;;;;;;;;5064214;28;20235;-58
2023/04/16 12:00:48;;;;;;;7.37;4.93;;;;;;;;;;5050263;28;20195;-57
2023/04/16 12:03:15;;;;;;;11.03;5.70;;;;;;;;;;5057620;28;20214;-57
2023/04/16 12:05:42;;;;;;;9.83;5.27;;;;;;;;;;5059784;28;20204;-57
2023/04/16 12:08:10;;;;;;;8.13;5.23;;;;;;;;;;5055861;28;20226;-57
2023/04/16 12:10:37;;;;;;;7.87;4.63;;;;;;;;;;5061224;28;20215;-58
2023/04/16 12:13:13;;;;;;;9.53;5.27;;;;;;;;;;5062985;28;20206;-57
2023/04/16 12:15:47;;;;;;;9.13;5.53;;;;;;;;;;5051816;28;20203;-58
2023/04/16 12:18:17;;;;;;;9.23;5.60;;;;;;;;;;5046336;28;20235;-58
2023/04/16 12:20:45;;;;;;;7.20;4.63;;;;;;;;;;5050022;28;20211;-58
2023/04/16 12:23:22;;;;;;;7.93;4.50;;;;;;;;;;5047548;28;20235;-58
2023/04/16 12:25:50;;;;;;;6.97;5.60;;;;;;;;;;5053869;28;20207;-59
2023/04/16 12:28:28;;;;;;;7.87;5.37;;;;;;;;;;5060352;28;20676;-59
2023/04/16 12:30:55;;;;;;;10.67;6.17;;;;;;;;;;5057721;28;20293;-59
2023/04/16 12:33:22;;;;;;;9.70;5.70;;;;;;;;;;5051138;28;20207;-58
2023/04/16 12:35:49;;;;;;;8.93;5.43;;;;;;;;;;5064978;28;20211;-58
2023/04/16 12:38:17;;;;;;;15.47;7.93;;;;;;;;;;5066341;28;21026;-57
2023/04/16 12:40:44;;;;;;;13.23;7.73;;;;;;;;;;5061513;28;20257;-60
2023/04/16 12:43:11;;;;;;;9.33;5.60;;;;;;;;;;5061713;28;20227;-59
2023/04/16 12:45:40;;;;;;;9.80;6.07;;;;;;;;;;5065303;28;20419;-59
2023/04/16 12:48:07;;;;;;;9.90;6.00;;;;;;;;;;5049909;28;20231;-59
2023/04/16 12:50:34;;;;;;;9.50;6.10;;;;;;;;;;5058901;28;20214;-59
2023/04/16 12:53:01;;;;;;;9.47;6.20;;;;;;;;;;5056516;28;20213;-59
2023/04/16 12:55:28;;;;;;;10.37;6.00;;;;;;;;;;5058344;28;20215;-58
2023/04/16 12:57:55;;;;;;;13.03;6.53;;;;;;;;;;5065847;28;20231;-58
2023/04/16 13:00:22;;;;;;;6.87;4.67;;;;;;;;;;5064793;28;20675;-58
2023/04/16 13:02:51;;;;;;;24.20;10.20;;;;;;;;;;5053644;28;20199;-57
2023/04/16 13:05:18;;;;;;;9.90;6.10;;;;;;;;;;5061426;28;20208;-59
2023/04/16 13:07:45;;;;;;;7.87;5.47;;;;;;;;;;5049664;28;20214;-58
2023/04/16 13:10:12;;;;;;;8.00;5.50;;;;;;;;;;5069137;28;20227;-55
2023/04/16 13:12:39;;;;;;;12.33;5.30;;;;;;;;;;5068688;28;20749;-56
2023/04/16 13:15:07;;;;;;;9.17;6.10;;;;;;;;;;5068779;28;20206;-57
2023/04/16 13:17:34;;;;;;;9.37;6.27;;;;;;;;;;5050152;28;20614;-57
2023/04/16 13:20:02;;;;;;;11.67;5.93;;;;;;;;;;5051286;28;20211;-57
2023/04/16 13:22:29;;;;;;;9.20;5.80;;;;;;;;;;5057204;28;20254;-57
2023/04/16 13:24:56;;;;;;;9.20;5.30;;;;;;;;;;5061106;28;20219;-57
2023/04/16 13:27:41;;;;;;;6.87;5.20;;;;;;;;;;5059490;28;20677;-58
2023/04/16 13:30:08;;;;;;;10.27;5.13;;;;;;;;;;5069914;28;20214;-58
2023/04/16 13:32:35;;;;;;;7.30;5.30;;;;;;;;;;5059676;28;20230;-57
2023/04/16 13:35:04;;;;;;;9.00;5.57;;;;;;;;;;5067829;28;20207;-57
2023/04/16 13:37:31;;;;;;;6.93;5.40;;;;;;;;;;5057702;28;20203;-57
2023/04/16 13:39:58;;;;;;;8.50;5.90;;;;;;;;;;5068109;28;20733;-57
2023/04/16 13:42:25;;;;;;;9.00;4.80;;;;;;;;;;5066516;28;20199;-58
2023/04/16 13:44:53;;;;;;;10.10;5.60;;;;;;;;;;5058052;28;20241;-57
2023/04/16 13:47:20;;;;;;;9.37;6.07;;;;;;;;;;5066774;28;20275;-57
2023/04/16 13:49:47;;;;;;;8.40;5.83;;;;;;;;;;5057569;28;20203;-57
2023/04/16 13:52:16;;;;;;;11.37;6.57;;;;;;;;;;5069077;28;20209;-58
2023/04/16 13:54:43;;;;;;;8.73;5.00;;;;;;;;;;5066635;28;20600;-57
2023/04/16 13:57:10;;;;;;;8.10;5.97;;;;;;;;;;5069364;28;20211;-58
2023/04/16 13:59:37;;;;;;;7.17;5.57;;;;;;;;;;5059271;28;20793;-57
2023/04/16 14:02:04;;;;;;;9.27;5.43;;;;;;;;;;5049608;28;20215;-58
2023/04/16 14:04:31;;;;;;;9.23;5.40;;;;;;;;;;5059421;28;20230;-58
2023/04/16 14:06:58;;;;;;;8.70;5.33;;;;;;;;;;5056617;28;20207;-60
2023/04/16 14:09:27;;;;;;;9.90;6.10;;;;;;;;;;5060370;28;20223;-58
2023/04/16 14:11:54;;;;;;;7.77;5.43;;;;;;;;;;5049387;28;20217;-57
2023/04/16 14:14:21;;;;;;;6.87;4.90;;;;;;;;;;5063347;28;20211;-57
2023/04/16 14:16:48;;;;;;;7.23;5.30;;;;;;;;;;5068922;28;20908;-57
2023/04/16 14:19:15;;;;;;;5.33;4.50;;;;;;;;;;5066504;28;20277;-57
2023/04/16 14:21:48;;;;;;;5.63;5.13;;;;;;;;;;5065139;28;20207;-58
2023/04/16 14:24:15;;;;;;;7.57;4.87;;;;;;;;;;5060143;28;20203;-57
2023/04/16 14:26:44;;;;;;;7.93;5.57;;;;;;;;;;5048746;28;20211;-58
2023/04/16 14:29:11;;;;;;;6.50;5.03;;;;;;;;;;5067190;28;20232;-59
2023/04/16 14:31:38;;;;;;;7.43;5.80;;;;;;;;;;5067414;28;20207;-56
2023/04/16 14:34:05;;;;;;;6.73;4.97;;;;;;;;;;5062436;28;20573;-58
2023/04/16 14:36:32;;;;;;;5.93;5.30;;;;;;;;;;5067426;28;20783;-59
2023/04/16 14:39:00;;;;;;;5.13;4.53;;;;;;;;;;5068271;28;20231;-57
2023/04/16 14:41:27;;;;;;;6.40;4.67;;;;;;;;;;5068647;28;20214;-58
2023/04/16 14:43:55;;;;;;;7.37;4.80;;;;;;;;;;5068118;28;20214;-57
2023/04/16 14:46:22;;;;;;;5.93;4.88;;;;;;;;;;5067451;28;20203;-58